Sebastián Ferrari

Recruteur en chef - Nueva Chicago
16 Déc 2027
Jeudi
Processus

Personnalité

Adaptabilité (1) Ambition (7) Controverse (13) Loyauté (3) Pression (1) Professionnalisme (1) Sportivité (7) Tempérament (8)

Profil

Style d'entraînement Démocratique
Diplôme Continental C
Détermination 3
Gestion des joueurs 2
Motivation 1
Discipline 2
Satisfaction professionnelle
100%
Fatigue
0%
Rôle Recruteur en chef
Salaire 22.8K p/s
Contrat 14.03.2028

Performance

Comportement Bon
Efficacité de l'entraînement
15%
Développement des joueurs
15%
Prévention des blessures
20%
Mise en place tactique
25%

Événements récents

A participé à une réunion de recrutement 7j
A participé à une réunion de recrutement 14j
A participé à une réunion de recrutement 21j
A participé à une réunion de recrutement 28j
A participé à une réunion de recrutement 35j
A participé à une réunion de recrutement 42j
A participé à une réunion de recrutement 49j
A participé à une réunion de recrutement 56j

Suivi en cours

105
Joueur Club Statut Capacité Confiance Observé Dernière observation Dernier vote
Enzo Vázquez Central Norte Actif 96 / 120 40% 3 29.11.2026 -
Lautaro Amadé Defensa y Justicia Actif 113 / 113 40% 2 29.11.2026 -
Agustín Zapata Alvarado Actif 81 / 101 40% 1 28.11.2026 -
Mauro Casoli Talleres Actif 91 / 98 40% 5 26.11.2026 -
Facundo Di Biasi Gimnasia La Plata Actif 132 / 125 40% 1 25.11.2026 -
Nahuel Galardi Maipú Actif 100 / 118 40% 2 24.11.2026 -
Aldhy Valencia Cesar Vallejo Actif 79 / 82 40% 1 17.11.2026 -
Miguel Silva Carabobo Actif 92 / 98 40% 1 17.11.2026 -
Juan Pablo Noce All Boys Actif 107 / 113 40% 1 16.11.2026 -
Manuel García Sarmiento Actif 113 / 105 40% 1 16.11.2026 -
Agustín Dattola Almirante Brown Actif 119 / 122 40% 1 16.11.2026 -
Mathías Bernatene Liverpool Montevideo Actif 97 / 108 40% 2 14.11.2026 -
David Agudelo Depor Actif 105 / 103 40% 2 12.11.2026 -
Rodrigo Frutos Olimpia Actif 88 / 99 40% 3 10.11.2026 -
Diego Duarte River Plate Actif 70 / 71 40% 2 09.11.2026 -
Nahuel Pezzini Arsenal Actif 119 / 105 40% 1 05.11.2026 -
Kevin González Trujillanos Actif 93 / 93 40% 1 05.11.2026 -
Massimo Sandi Sport Huancayo Actif 86 / 85 40% 1 03.11.2026 -
Juan Bobba Estudiantes de Caracas Actif 90 / 82 40% 4 01.11.2026 -
Mathieu Choinière Los Angeles Football Club Actif 116 / 93 40% 1 01.11.2026 -
Jeremías James Columbus Crew Actif 124 / 120 40% 1 31.10.2026 -
Duván Mósquera Aguilas Doradas Actif 100 / 100 40% 1 31.10.2026 -
Luis Corredor Estudiantes de Caracas Actif 88 / 95 40% 1 28.10.2026 -
Guilherme Biro Austin FC Actif 105 / 127 40% 1 28.10.2026 -
Julián Vila Arsenal Actif 101 / 95 40% 1 28.10.2026 -
Emiliano González Almagro Actif 121 / 119 40% 2 23.10.2026 -
Tomás Giménez Gimnasia y Esgrima Actif 109 / 114 40% 1 23.10.2026 -
Tomás Romero New York City Actif 87 / 108 40% 1 22.10.2026 -
Ryan Raposo Los Angeles Football Club Actif 110 / 100 40% 1 22.10.2026 -
Francisco Gualtieri Estudiantes Actif 76 / 87 40% 1 20.10.2026 -
Facundo Ledesma Mitre Actif 99 / 89 40% 1 20.10.2026 -
Adrián Montañez Deportivo Tachira Actif 116 / 101 40% 1 19.10.2026 -
Martín García Atlanta Actif 126 / 110 40% 1 19.10.2026 -
Carlos Murillo Atletico Venezuela Actif 82 / 93 40% 1 18.10.2026 -
Tiago Libares All Boys Actif 91 / 114 40% 1 15.10.2026 -
Gastón Fernández Chacarita Juniors Actif 113 / 106 40% 1 14.10.2026 -
Cristian Díaz Zamora Actif 90 / 106 40% 1 12.10.2026 -
José Velásquez Aragua Actif 79 / 96 40% 1 12.10.2026 -
Mathías Bordón Sol de America Actif 75 / 82 40% 1 12.10.2026 -
Ángel Espínola Sportivo Luqueno Actif 107 / 99 40% 2 10.10.2026 -
Aldo Pérez Guarani Actif 111 / 100 40% 2 10.10.2026 -
Kevin O'Toole New York City Actif 92 / 113 40% 1 07.10.2026 -
Facundo Melillán Güemes Actif 101 / 112 40% 1 07.10.2026 -
Tomás Durso Atlético Tucumán Actif 109 / 122 40% 1 05.10.2026 -
Joaquín Enrico San Telmo Actif 94 / 105 40% 1 03.10.2026 -
Fernando Abarzúa San Luis Actif 85 / 90 40% 1 01.10.2026 -
Cristian Savarino Llaneros Actif 99 / 99 40% 1 30.09.2026 -
Lucas Ruiz Ferro Carril Oeste Actif 115 / 97 40% 1 30.09.2026 -
Elías Calderón Central Norte Actif 103 / 105 40% 2 26.09.2026 -
Hugo Gaona Sportivo Luqueno Actif 95 / 79 40% 1 26.09.2026 -
Cristhian Paredes Cerro Porteno Actif 104 / 108 40% 1 26.09.2026 -
Juan Camacaro Aragua Actif 74 / 88 40% 1 24.09.2026 -
Gustavo Calderari Colegiales Actif 104 / 97 40% 1 24.09.2026 -
Luis Villegas Morelia Actif 95 / 87 40% 1 23.09.2026 -
Tomás Palleres Güemes Actif 87 / 101 40% 1 20.09.2026 -
Alcides Barbotte Guarani Actif 119 / 99 40% 1 19.09.2026 -
Franco Martínez Artigas Actif 115 / 101 40% 1 18.09.2026 -
Sebastián Santos Leon Actif 112 / 125 40% 1 18.09.2026 -
Mauricio Cuevas Santos Laguna Actif 87 / 124 40% 1 17.09.2026 -
Diego Vicente La Luz Actif 109 / 102 40% 1 17.09.2026 -
Catriel Cabellos Sporting Cristal Actif 108 / 116 40% 1 15.09.2026 -
Gustavo Dionisi Guarani Actif 89 / 92 40% 1 15.09.2026 -
Francisco Castillo Llaneros Actif 85 / 87 40% 1 14.09.2026 -
Juan Camilo Loaiza Llaneros Actif 102 / 94 40% 1 12.09.2026 -
Facundo Vila Estudiantes Actif 116 / 106 40% 1 12.09.2026 -
Sebastián Cáceres Montevideo City Torque Actif 84 / 106 40% 1 11.09.2026 -
Alexis Gutiérrez Club America Actif 100 / 135 40% 1 11.09.2026 -
Luis Barbat Cerrito Actif 106 / 87 40% 1 09.09.2026 -
Nicolás Rossi Juventud Actif 96 / 108 40% 2 08.09.2026 -
Facundo Lemos Artigas Actif 87 / 84 40% 1 08.09.2026 -
Ezequiel Busquets Montevideo City Torque Actif 108 / 113 40% 1 08.09.2026 -
Mauricio Isais Pachuca Actif 132 / 112 40% 1 08.09.2026 -
Andrés Macea Real Santander Actif 68 / 75 40% 2 06.09.2026 -
Hernán Domínguez Nacional Actif 79 / 89 40% 1 06.09.2026 -
José Hernández Queretaro Actif 94 / 107 40% 1 05.09.2026 -
Jaime Mora Envigado Actif 91 / 95 40% 1 04.09.2026 -
Nicolás Thaller Colón Actif 113 / 110 40% 1 04.09.2026 -
José Febres Trujillanos Actif 82 / 94 40% 1 01.09.2026 -
Aldo Montes Tigres Actif 92 / 100 40% 2 30.08.2026 -
Francisco Valenzuela Estudiantes de Merida Actif 73 / 85 40% 1 30.08.2026 -
Nahuel Suárez La Luz Actif 93 / 98 40% 1 29.08.2026 -
Fernando Tapia Club America Actif 121 / 109 40% 1 28.08.2026 -
Francisco Casanova Cerrito Actif 92 / 99 40% 1 28.08.2026 -
Nicolás Fernandez Universidad de Chile Actif 122 / 111 40% 1 28.08.2026 -
Iván Moreno Leon Actif 107 / 109 40% 1 28.08.2026 -
Humberto Acevedo Union Magdalena Actif 109 / 93 40% 1 26.08.2026 -
Weibmar Asprilla Independiente Medellin Actif 125 / 121 40% 1 25.08.2026 -
Emanuel Carlos Atenas Actif 97 / 94 40% 1 25.08.2026 -
Augusto Gallo Fenix Actif 87 / 104 40% 1 25.08.2026 -
Juan Diego Jaramillo Depor Actif 93 / 105 40% 1 21.08.2026 -
Alejandro Santander Cobresal Actif 97 / 92 40% 1 20.08.2026 -
Pedro González Cerro Largo Actif 110 / 114 40% 1 20.08.2026 -
Yesid Díaz Fortaleza CEIF Actif 128 / 112 40% 1 15.08.2026 -
Duvan Medina Cortulua Actif 102 / 92 40% 1 15.08.2026 -
Pablo Monroy Pumas UNAM Actif 112 / 115 40% 1 14.08.2026 -
Yeferson Moreno Barranquilla Actif 105 / 118 40% 1 14.08.2026 -
Denilson Ojeda Carabobo Actif 87 / 95 40% 1 10.08.2026 -
Renato Solís Sporting Cristal Actif 131 / 127 40% 1 08.08.2026 -
Adriano Freitas Deportivo Maldonado Actif 94 / 106 40% 1 07.08.2026 -
Brian Lapaz Oriental Actif 80 / 71 40% 1 04.08.2026 -
Nicolás Forastiero Deportivo Maldonado Actif 95 / 102 40% 1 03.08.2026 -
Juan Camilo Mosquera Atletico Bucaramanga Actif 114 / 115 40% 1 03.08.2026 -
Nicolás Kozlovsky Oriental Actif 99 / 114 40% 1 03.08.2026 -
Emiliano Ancheta Nacional Actif 118 / 116 40% 1 02.08.2026 -
Jesús Yendis Caracas Actif 90 / 111 40% 1 02.08.2026 -